sensor_id;sensor_type;location;lat;lon;timestamp;pressure;altitude;pressure_sealevel;temperature;humidity
59009;BME280;44794;42.652;23.318;2024-03-08T00:02:11;94562.94;;;7.98;100.00
59009;BME280;44794;42.652;23.318;2024-03-08T00:04:38;94568.91;;;7.86;100.00
59009;BME280;44794;42.652;23.318;2024-03-08T00:07:03;94562.22;;;7.96;100.00
59009;BME280;44794;42.652;23.318;2024-03-08T00:09:28;94565.41;;;7.87;100.00
59009;BME280;44794;42.652;23.318;2024-03-08T00:11:55;94570.06;;;7.94;100.00
59009;BME280;44794;42.652;23.318;2024-03-08T00:14:21;94569.44;;;7.91;100.00
59009;BME280;44794;42.652;23.318;2024-03-08T00:16:46;94573.16;;;7.87;100.00
59009;BME280;44794;42.652;23.318;2024-03-08T00:19:12;94568.50;;;7.92;100.00
59009;BME280;44794;42.652;23.318;2024-03-08T00:21:37;94570.34;;;7.90;100.00
59009;BME280;44794;42.652;23.318;2024-03-08T00:24:02;94573.38;;;7.70;100.00
59009;BME280;44794;42.652;23.318;2024-03-08T00:26:27;94562.47;;;7.79;100.00
59009;BME280;44794;42.652;23.318;2024-03-08T00:28:55;94557.31;;;7.79;100.00
59009;BME280;44794;42.652;23.318;2024-03-08T00:31:20;94560.59;;;7.81;100.00
59009;BME280;44794;42.652;23.318;2024-03-08T00:33:45;94551.72;;;7.85;100.00
59009;BME280;44794;42.652;23.318;2024-03-08T00:36:10;94561.34;;;7.83;100.00
59009;BME280;44794;42.652;23.318;2024-03-08T00:38:36;94552.31;;;7.76;100.00
59009;BME280;44794;42.652;23.318;2024-03-08T00:41:01;94549.44;;;7.54;100.00
59009;BME280;44794;42.652;23.318;2024-03-08T00:43:27;94551.59;;;7.47;100.00
59009;BME280;44794;42.652;23.318;2024-03-08T00:45:52;94547.41;;;7.59;100.00
59009;BME280;44794;42.652;23.318;2024-03-08T00:48:17;94545.34;;;7.64;100.00
59009;BME280;44794;42.652;23.318;2024-03-08T00:50:43;94549.03;;;7.60;100.00
59009;BME280;44794;42.652;23.318;2024-03-08T00:53:10;94539.97;;;7.41;100.00
59009;BME280;44794;42.652;23.318;2024-03-08T00:55:36;94536.19;;;7.32;100.00
59009;BME280;44794;42.652;23.318;2024-03-08T00:58:01;94536.81;;;7.09;100.00
59009;BME280;44794;42.652;23.318;2024-03-08T01:00:26;94538.66;;;6.93;100.00
59009;BME280;44794;42.652;23.318;2024-03-08T01:02:52;94529.25;;;6.78;100.00
59009;BME280;44794;42.652;23.318;2024-03-08T01:05:18;94525.00;;;6.64;100.00
59009;BME280;44794;42.652;23.318;2024-03-08T01:07:44;94520.88;;;6.61;100.00
59009;BME280;44794;42.652;23.318;2024-03-08T01:10:11;94515.25;;;6.69;100.00
59009;BME280;44794;42.652;23.318;2024-03-08T01:12:37;94523.97;;;6.80;100.00
59009;BME280;44794;42.652;23.318;2024-03-08T01:15:02;94529.91;;;6.68;100.00
59009;BME280;44794;42.652;23.318;2024-03-08T01:17:28;94519.66;;;6.39;100.00
59009;BME280;44794;42.652;23.318;2024-03-08T01:19:53;94515.53;;;6.64;100.00
59009;BME280;44794;42.652;23.318;2024-03-08T01:22:19;94520.94;;;6.46;100.00
59009;BME280;44794;42.652;23.318;2024-03-08T01:24:44;94512.94;;;6.36;100.00
59009;BME280;44794;42.652;23.318;2024-03-08T01:27:09;94515.69;;;6.33;100.00
59009;BME280;44794;42.652;23.318;2024-03-08T01:29:34;94508.41;;;6.26;100.00
59009;BME280;44794;42.652;23.318;2024-03-08T01:32:00;94505.56;;;6.30;100.00
59009;BME280;44794;42.652;23.318;2024-03-08T01:34:26;94509.44;;;6.51;100.00
59009;BME280;44794;42.652;23.318;2024-03-08T01:36:53;94503.16;;;6.41;100.00
59009;BME280;44794;42.652;23.318;2024-03-08T01:39:18;94509.78;;;6.73;100.00
59009;BME280;44794;42.652;23.318;2024-03-08T01:41:44;94511.44;;;7.02;100.00
59009;BME280;44794;42.652;23.318;2024-03-08T01:44:09;94508.59;;;6.78;100.00
59009;BME280;44794;42.652;23.318;2024-03-08T01:46:34;94499.56;;;6.99;100.00
59009;BME280;44794;42.652;23.318;2024-03-08T01:49:00;94515.69;;;7.03;100.00
59009;BME280;44794;42.652;23.318;2024-03-08T01:51:25;94512.63;;;7.24;100.00
59009;BME280;44794;42.652;23.318;2024-03-08T01:53:51;94514.56;;;7.21;100.00
59009;BME280;44794;42.652;23.318;2024-03-08T01:56:16;94509.78;;;7.41;100.00
59009;BME280;44794;42.652;23.318;2024-03-08T01:58:43;94508.63;;;7.33;100.00
59009;BME280;44794;42.652;23.318;2024-03-08T02:01:10;94511.06;;;7.74;100.00
59009;BME280;44794;42.652;23.318;2024-03-08T02:03:36;94512.44;;;7.92;100.00
59009;BME280;44794;42.652;23.318;2024-03-08T02:06:01;94512.25;;;7.95;100.00
59009;BME280;44794;42.652;23.318;2024-03-08T02:08:26;94507.63;;;7.74;100.00
59009;BME280;44794;42.652;23.318;2024-03-08T02:10:51;94513.19;;;7.55;100.00
59009;BME280;44794;42.652;23.318;2024-03-08T02:13:17;94510.66;;;7.80;100.00
59009;BME280;44794;42.652;23.318;2024-03-08T02:18:20;94519.38;;;8.18;100.00
59009;BME280;44794;42.652;23.318;2024-03-08T02:20:47;94529.84;;;8.54;100.00
59009;BME280;44794;42.652;23.318;2024-03-08T02:23:12;94521.59;;;8.49;100.00
59009;BME280;44794;42.652;23.318;2024-03-08T02:25:38;94520.88;;;8.59;100.00
59009;BME280;44794;42.652;23.318;2024-03-08T02:28:04;94530.19;;;8.87;100.00
59009;BME280;44794;42.652;23.318;2024-03-08T02:30:29;94533.16;;;9.05;100.00
59009;BME280;44794;42.652;23.318;2024-03-08T02:32:55;94534.59;;;9.22;100.00
59009;BME280;44794;42.652;23.318;2024-03-08T02:35:20;94533.97;;;9.31;100.00
59009;BME280;44794;42.652;23.318;2024-03-08T02:37:45;94543.16;;;9.35;100.00
59009;BME280;44794;42.652;23.318;2024-03-08T02:40:12;94542.53;;;9.44;100.00
59009;BME280;44794;42.652;23.318;2024-03-08T02:42:38;94552.25;;;9.53;100.00
59009;BME280;44794;42.652;23.318;2024-03-08T02:45:03;94548.03;;;9.27;99.91
59009;BME280;44794;42.652;23.318;2024-03-08T02:47:30;94549.63;;;9.17;100.00
59009;BME280;44794;42.652;23.318;2024-03-08T02:49:56;94542.59;;;9.19;100.00
59009;BME280;44794;42.652;23.318;2024-03-08T02:52:21;94545.50;;;9.02;100.00
59009;BME280;44794;42.652;23.318;2024-03-08T02:54:47;94550.25;;;9.08;100.00
59009;BME280;44794;42.652;23.318;2024-03-08T02:57:12;94546.53;;;9.12;100.00
59009;BME280;44794;42.652;23.318;2024-03-08T02:59:39;94558.66;;;8.49;96.70
59009;BME280;44794;42.652;23.318;2024-03-08T03:02:05;94566.28;;;8.00;95.89
59009;BME280;44794;42.652;23.318;2024-03-08T03:04:31;94562.81;;;7.87;96.22
59009;BME280;44794;42.652;23.318;2024-03-08T03:06:56;94551.63;;;7.86;97.17
59009;BME280;44794;42.652;23.318;2024-03-08T03:09:23;94560.31;;;7.85;96.22
59009;BME280;44794;42.652;23.318;2024-03-08T03:11:52;94559.97;;;8.04;93.10
59009;BME280;44794;42.652;23.318;2024-03-08T03:14:17;94571.38;;;7.87;91.42
59009;BME280;44794;42.652;23.318;2024-03-08T03:16:44;94574.63;;;8.17;91.65
59009;BME280;44794;42.652;23.318;2024-03-08T03:19:10;94575.50;;;8.30;89.62
59009;BME280;44794;42.652;23.318;2024-03-08T03:21:36;94575.81;;;8.12;89.77
59009;BME280;44794;42.652;23.318;2024-03-08T03:24:03;94574.88;;;8.13;90.51
59009;BME280;44794;42.652;23.318;2024-03-08T03:26:29;94580.66;;;8.30;90.91
59009;BME280;44794;42.652;23.318;2024-03-08T03:28:56;94579.13;;;8.52;90.73
59009;BME280;44794;42.652;23.318;2024-03-08T03:31:22;94582.38;;;8.68;92.65
59009;BME280;44794;42.652;23.318;2024-03-08T03:33:49;94586.13;;;8.89;93.73
59009;BME280;44794;42.652;23.318;2024-03-08T03:36:16;94584.56;;;8.87;91.05
59009;BME280;44794;42.652;23.318;2024-03-08T03:38:41;94590.25;;;8.92;87.16
59009;BME280;44794;42.652;23.318;2024-03-08T03:41:07;94597.19;;;9.03;88.05
59009;BME280;44794;42.652;23.318;2024-03-08T03:43:35;94592.00;;;9.16;89.06
59009;BME280;44794;42.652;23.318;2024-03-08T03:46:02;94593.13;;;9.24;87.76
59009;BME280;44794;42.652;23.318;2024-03-08T03:48:30;94601.22;;;9.20;85.98
59009;BME280;44794;42.652;23.318;2024-03-08T03:50:57;94607.22;;;8.95;85.14
59009;BME280;44794;42.652;23.318;2024-03-08T03:53:22;94603.22;;;9.04;86.37
59009;BME280;44794;42.652;23.318;2024-03-08T03:55:47;94599.56;;;8.94;87.19
59009;BME280;44794;42.652;23.318;2024-03-08T03:58:12;94602.69;;;8.74;85.45
59009;BME280;44794;42.652;23.318;2024-03-08T04:00:38;94612.63;;;8.80;85.72
59009;BME280;44794;42.652;23.318;2024-03-08T04:03:03;94605.38;;;8.85;85.48
59009;BME280;44794;42.652;23.318;2024-03-08T04:05:29;94608.91;;;8.84;84.27
59009;BME280;44794;42.652;23.318;2024-03-08T04:07:54;94614.50;;;8.91;82.79
59009;BME280;44794;42.652;23.318;2024-03-08T04:10:19;94616.84;;;8.69;80.30
59009;BME280;44794;42.652;23.318;2024-03-08T04:12:45;94626.78;;;8.75;80.44
59009;BME280;44794;42.652;23.318;2024-03-08T04:15:10;94631.88;;;8.76;79.49
59009;BME280;44794;42.652;23.318;2024-03-08T04:17:36;94633.50;;;8.52;79.90
59009;BME280;44794;42.652;23.318;2024-03-08T04:20:02;94631.56;;;8.29;78.87
59009;BME280;44794;42.652;23.318;2024-03-08T04:22:33;94640.88;;;8.06;79.79
59009;BME280;44794;42.652;23.318;2024-03-08T04:25:00;94635.44;;;7.96;81.91
59009;BME280;44794;42.652;23.318;2024-03-08T04:27:25;94635.22;;;7.73;83.47
59009;BME280;44794;42.652;23.318;2024-03-08T04:29:50;94622.66;;;6.99;88.83
59009;BME280;44794;42.652;23.318;2024-03-08T04:32:16;94617.50;;;6.56;93.12
59009;BME280;44794;42.652;23.318;2024-03-08T04:34:42;94618.28;;;6.85;95.21
59009;BME280;44794;42.652;23.318;2024-03-08T04:37:07;94624.00;;;6.90;94.45
59009;BME280;44794;42.652;23.318;2024-03-08T04:39:36;94624.75;;;7.06;93.90
59009;BME280;44794;42.652;23.318;2024-03-08T04:42:02;94635.47;;;7.14;92.97
59009;BME280;44794;42.652;23.318;2024-03-08T04:44:31;94625.13;;;6.86;94.89
59009;BME280;44794;42.652;23.318;2024-03-08T04:46:58;94625.66;;;7.33;94.86
59009;BME280;44794;42.652;23.318;2024-03-08T04:49:25;94630.44;;;7.53;92.69
59009;BME280;44794;42.652;23.318;2024-03-08T04:51:50;94629.31;;;7.71;92.42
59009;BME280;44794;42.652;23.318;2024-03-08T04:54:15;94632.69;;;7.85;90.19
59009;BME280;44794;42.652;23.318;2024-03-08T04:56:41;94643.28;;;7.54;90.79
59009;BME280;44794;42.652;23.318;2024-03-08T04:59:06;94636.50;;;7.80;90.88
59009;BME280;44794;42.652;23.318;2024-03-08T05:01:33;94643.09;;;7.98;90.19
59009;BME280;44794;42.652;23.318;2024-03-08T05:03:58;94640.22;;;8.16;90.14
59009;BME280;44794;42.652;23.318;2024-03-08T05:06:24;94638.91;;;8.23;90.53
59009;BME280;44794;42.652;23.318;2024-03-08T05:08:49;94646.94;;;8.57;90.01
59009;BME280;44794;42.652;23.318;2024-03-08T05:11:14;94648.47;;;8.74;88.32
59009;BME280;44794;42.652;23.318;2024-03-08T05:13:40;94651.47;;;8.80;87.22
59009;BME280;44794;42.652;23.318;2024-03-08T05:16:08;94660.06;;;8.93;85.79
59009;BME280;44794;42.652;23.318;2024-03-08T05:18:34;94666.66;;;8.72;84.53
59009;BME280;44794;42.652;23.318;2024-03-08T05:21:01;94668.06;;;8.51;84.89
59009;BME280;44794;42.652;23.318;2024-03-08T05:23:29;94659.81;;;8.32;87.21
59009;BME280;44794;42.652;23.318;2024-03-08T05:25:54;94670.22;;;8.45;87.55
59009;BME280;44794;42.652;23.318;2024-03-08T05:28:19;94679.88;;;8.55;87.54
59009;BME280;44794;42.652;23.318;2024-03-08T05:30:45;94670.06;;;8.60;89.11
59009;BME280;44794;42.652;23.318;2024-03-08T05:33:10;94675.41;;;8.57;89.68
59009;BME280;44794;42.652;23.318;2024-03-08T05:35:36;94674.78;;;8.41;90.55
59009;BME280;44794;42.652;23.318;2024-03-08T05:38:02;94676.16;;;8.59;91.13
59009;BME280;44794;42.652;23.318;2024-03-08T05:40:27;94680.06;;;8.52;90.32
59009;BME280;44794;42.652;23.318;2024-03-08T05:42:56;94692.94;;;8.66;90.57
59009;BME280;44794;42.652;23.318;2024-03-08T05:45:22;94687.16;;;8.63;89.23
59009;BME280;44794;42.652;23.318;2024-03-08T05:47:47;94688.03;;;8.88;89.68
59009;BME280;44794;42.652;23.318;2024-03-08T05:50:13;94696.78;;;9.12;87.85
59009;BME280;44794;42.652;23.318;2024-03-08T05:52:41;94707.38;;;9.21;85.78
59009;BME280;44794;42.652;23.318;2024-03-08T05:55:06;94711.47;;;9.11;85.25
59009;BME280;44794;42.652;23.318;2024-03-08T05:57:32;94710.31;;;8.91;87.15
59009;BME280;44794;42.652;23.318;2024-03-08T05:59:58;94712.47;;;8.84;87.83
59009;BME280;44794;42.652;23.318;2024-03-08T06:02:23;94708.56;;;9.03;88.70
59009;BME280;44794;42.652;23.318;2024-03-08T06:04:48;94713.50;;;9.33;87.16
59009;BME280;44794;42.652;23.318;2024-03-08T06:07:14;94720.53;;;9.31;85.51
59009;BME280;44794;42.652;23.318;2024-03-08T06:09:40;94721.69;;;8.88;86.78
59009;BME280;44794;42.652;23.318;2024-03-08T06:12:05;94723.44;;;8.75;88.19
59009;BME280;44794;42.652;23.318;2024-03-08T06:14:31;94720.44;;;8.81;90.28
59009;BME280;44794;42.652;23.318;2024-03-08T06:16:57;94719.47;;;8.43;92.70
59009;BME280;44794;42.652;23.318;2024-03-08T06:19:22;94712.63;;;8.16;95.76
59009;BME280;44794;42.652;23.318;2024-03-08T06:21:47;94721.25;;;7.61;98.39
59009;BME280;44794;42.652;23.318;2024-03-08T06:24:13;94723.47;;;7.53;100.00
59009;BME280;44794;42.652;23.318;2024-03-08T06:26:40;94720.81;;;7.54;100.00
59009;BME280;44794;42.652;23.318;2024-03-08T06:29:05;94716.94;;;7.47;99.58
59009;BME280;44794;42.652;23.318;2024-03-08T06:31:31;94718.13;;;7.70;98.54
59009;BME280;44794;42.652;23.318;2024-03-08T06:33:57;94717.00;;;7.60;99.46
59009;BME280;44794;42.652;23.318;2024-03-08T06:36:23;94723.75;;;7.76;98.94
59009;BME280;44794;42.652;23.318;2024-03-08T06:38:51;94724.66;;;7.89;98.61
59009;BME280;44794;42.652;23.318;2024-03-08T06:41:16;94728.03;;;8.04;99.10
59009;BME280;44794;42.652;23.318;2024-03-08T06:43:45;94727.97;;;8.45;98.12
59009;BME280;44794;42.652;23.318;2024-03-08T06:46:11;94736.03;;;8.41;95.86
59009;BME280;44794;42.652;23.318;2024-03-08T06:48:39;94736.50;;;8.74;95.15
59009;BME280;44794;42.652;23.318;2024-03-08T06:51:04;94741.44;;;8.77;92.68
59009;BME280;44794;42.652;23.318;2024-03-08T06:53:30;94761.25;;;8.78;91.69
59009;BME280;44794;42.652;23.318;2024-03-08T06:55:55;94750.44;;;8.71;91.60
59009;BME280;44794;42.652;23.318;2024-03-08T06:58:21;94757.63;;;8.00;90.57
59009;BME280;44794;42.652;23.318;2024-03-08T07:00:46;94749.38;;;8.07;93.54
59009;BME280;44794;42.652;23.318;2024-03-08T07:03:11;94758.88;;;8.34;92.79
59009;BME280;44794;42.652;23.318;2024-03-08T07:05:42;94755.66;;;8.57;92.09
59009;BME280;44794;42.652;23.318;2024-03-08T07:08:07;94755.88;;;8.93;89.55
59009;BME280;44794;42.652;23.318;2024-03-08T07:10:33;94760.13;;;9.20;85.97
59009;BME280;44794;42.652;23.318;2024-03-08T07:12:59;94775.13;;;9.15;81.20
59009;BME280;44794;42.652;23.318;2024-03-08T07:15:27;94780.47;;;9.00;80.12
59009;BME280;44794;42.652;23.318;2024-03-08T07:17:53;94780.31;;;9.15;78.56
59009;BME280;44794;42.652;23.318;2024-03-08T07:20:18;94778.16;;;8.95;79.50
59009;BME280;44794;42.652;23.318;2024-03-08T07:22:47;94787.94;;;9.04;79.32
59009;BME280;44794;42.652;23.318;2024-03-08T07:25:13;94787.56;;;8.58;80.42
59009;BME280;44794;42.652;23.318;2024-03-08T07:27:50;94783.38;;;8.69;79.24
59009;BME280;44794;42.652;23.318;2024-03-08T07:30:17;94784.13;;;8.57;81.71
59009;BME280;44794;42.652;23.318;2024-03-08T07:33:02;94791.31;;;8.66;80.10
59009;BME280;44794;42.652;23.318;2024-03-08T07:35:28;94784.53;;;9.16;78.94
59009;BME280;44794;42.652;23.318;2024-03-08T07:37:54;94794.91;;;9.04;75.75
59009;BME280;44794;42.652;23.318;2024-03-08T07:40:21;94799.94;;;9.44;73.72
59009;BME280;44794;42.652;23.318;2024-03-08T07:42:48;94799.88;;;9.70;74.77
59009;BME280;44794;42.652;23.318;2024-03-08T07:45:13;94812.66;;;9.73;73.44
59009;BME280;44794;42.652;23.318;2024-03-08T07:47:38;94811.38;;;9.79;71.27
59009;BME280;44794;42.652;23.318;2024-03-08T07:50:05;94804.84;;;9.61;70.85
59009;BME280;44794;42.652;23.318;2024-03-08T07:52:33;94800.88;;;9.56;72.72
59009;BME280;44794;42.652;23.318;2024-03-08T07:54:58;94802.34;;;9.72;71.75
59009;BME280;44794;42.652;23.318;2024-03-08T07:57:24;94796.13;;;10.37;73.65
59009;BME280;44794;42.652;23.318;2024-03-08T07:59:50;94800.59;;;10.70;69.75
59009;BME280;44794;42.652;23.318;2024-03-08T08:02:15;94805.91;;;10.69;67.53
59009;BME280;44794;42.652;23.318;2024-03-08T08:04:40;94810.16;;;10.34;66.85
59009;BME280;44794;42.652;23.318;2024-03-08T08:07:06;94804.78;;;10.00;68.63
59009;BME280;44794;42.652;23.318;2024-03-08T08:09:33;94808.53;;;10.08;68.76
59009;BME280;44794;42.652;23.318;2024-03-08T08:12:00;94813.78;;;10.44;67.30
59009;BME280;44794;42.652;23.318;2024-03-08T08:14:26;94811.53;;;10.02;69.41
59009;BME280;44794;42.652;23.318;2024-03-08T08:16:52;94797.91;;;10.24;72.31
59009;BME280;44794;42.652;23.318;2024-03-08T08:19:18;94787.28;;;10.75;71.68
59009;BME280;44794;42.652;23.318;2024-03-08T08:21:43;94797.44;;;10.90;67.13
59009;BME280;44794;42.652;23.318;2024-03-08T08:24:08;94800.44;;;11.54;64.22
59009;BME280;44794;42.652;23.318;2024-03-08T08:26:34;94817.66;;;11.90;62.29
59009;BME280;44794;42.652;23.318;2024-03-08T08:29:01;94815.25;;;12.32;60.73
59009;BME280;44794;42.652;23.318;2024-03-08T08:31:26;94827.44;;;12.42;57.23
59009;BME280;44794;42.652;23.318;2024-03-08T08:33:51;94817.50;;;12.36;57.78
59009;BME280;44794;42.652;23.318;2024-03-08T08:36:22;94832.22;;;11.92;57.02
59009;BME280;44794;42.652;23.318;2024-03-08T08:38:48;94813.19;;;11.92;58.67
59009;BME280;44794;42.652;23.318;2024-03-08T08:41:13;94817.94;;;12.30;57.39
59009;BME280;44794;42.652;23.318;2024-03-08T08:43:39;94824.59;;;12.78;55.02
59009;BME280;44794;42.652;23.318;2024-03-08T08:46:04;94825.69;;;13.29;54.04
59009;BME280;44794;42.652;23.318;2024-03-08T08:48:29;94822.56;;;12.71;53.80
59009;BME280;44794;42.652;23.318;2024-03-08T08:50:56;94814.75;;;12.71;53.74
59009;BME280;44794;42.652;23.318;2024-03-08T08:53:21;94817.72;;;12.66;54.39
59009;BME280;44794;42.652;23.318;2024-03-08T08:55:47;94809.56;;;12.38;55.22
59009;BME280;44794;42.652;23.318;2024-03-08T08:58:12;94815.47;;;12.73;54.83
59009;BME280;44794;42.652;23.318;2024-03-08T09:00:38;94805.28;;;12.91;54.88
59009;BME280;44794;42.652;23.318;2024-03-08T09:03:04;94803.88;;;12.44;55.11
59009;BME280;44794;42.652;23.318;2024-03-08T09:05:31;94815.69;;;12.70;53.86
59009;BME280;44794;42.652;23.318;2024-03-08T09:07:57;94815.59;;;12.60;53.59
59009;BME280;44794;42.652;23.318;2024-03-08T09:10:22;94806.66;;;11.86;54.70
59009;BME280;44794;42.652;23.318;2024-03-08T09:12:48;94808.84;;;12.14;55.67
59009;BME280;44794;42.652;23.318;2024-03-08T09:15:13;94815.47;;;12.29;53.98
59009;BME280;44794;42.652;23.318;2024-03-08T09:17:39;94807.06;;;12.47;53.66
59009;BME280;44794;42.652;23.318;2024-03-08T09:20:10;94801.88;;;12.36;55.16
59009;BME280;44794;42.652;23.318;2024-03-08T09:22:35;94817.66;;;11.90;52.04
59009;BME280;44794;42.652;23.318;2024-03-08T09:25:01;94811.56;;;12.34;52.65
59009;BME280;44794;42.652;23.318;2024-03-08T09:27:26;94814.63;;;12.72;51.16
59009;BME280;44794;42.652;23.318;2024-03-08T09:29:52;94815.13;;;12.77;50.75
59009;BME280;44794;42.652;23.318;2024-03-08T09:32:17;94823.75;;;12.56;50.51
59009;BME280;44794;42.652;23.318;2024-03-08T09:34:43;94814.94;;;13.11;50.42
59009;BME280;44794;42.652;23.318;2024-03-08T09:37:08;94807.25;;;13.10;50.08
59009;BME280;44794;42.652;23.318;2024-03-08T09:39:34;94816.66;;;12.79;50.26
59009;BME280;44794;42.652;23.318;2024-03-08T09:41:59;94808.28;;;13.18;50.04
59009;BME280;44794;42.652;23.318;2024-03-08T09:44:24;94802.25;;;13.49;50.38
59009;BME280;44794;42.652;23.318;2024-03-08T09:46:50;94811.81;;;13.80;48.97
59009;BME280;44794;42.652;23.318;2024-03-08T09:49:18;94828.19;;;13.61;47.72
59009;BME280;44794;42.652;23.318;2024-03-08T09:51:44;94820.59;;;14.10;47.03
59009;BME280;44794;42.652;23.318;2024-03-08T09:54:11;94812.31;;;14.55;47.61
59009;BME280;44794;42.652;23.318;2024-03-08T09:56:36;94823.25;;;14.79;46.41
59009;BME280;44794;42.652;23.318;2024-03-08T09:59:03;94823.81;;;15.31;46.37
59009;BME280;44794;42.652;23.318;2024-03-08T10:01:48;94823.78;;;14.14;45.43
59009;BME280;44794;42.652;23.318;2024-03-08T10:04:13;94818.06;;;13.37;46.70
59009;BME280;44794;42.652;23.318;2024-03-08T10:06:41;94811.81;;;13.28;47.22
59009;BME280;44794;42.652;23.318;2024-03-08T10:09:07;94805.72;;;12.96;48.34
59009;BME280;44794;42.652;23.318;2024-03-08T10:11:33;94796.88;;;12.11;50.83
59009;BME280;44794;42.652;23.318;2024-03-08T10:13:58;94798.38;;;11.70;51.35
59009;BME280;44794;42.652;23.318;2024-03-08T10:16:25;94810.50;;;12.15;50.45
59009;BME280;44794;42.652;23.318;2024-03-08T10:18:50;94808.81;;;12.69;50.05
59009;BME280;44794;42.652;23.318;2024-03-08T10:21:18;94808.47;;;13.06;48.20
59009;BME280;44794;42.652;23.318;2024-03-08T10:23:44;94816.50;;;13.03;47.58
59009;BME280;44794;42.652;23.318;2024-03-08T10:26:13;94805.75;;;12.64;49.51
59009;BME280;44794;42.652;23.318;2024-03-08T10:28:46;94795.94;;;12.67;49.60
59009;BME280;44794;42.652;23.318;2024-03-08T10:31:15;94802.72;;;12.26;51.12
59009;BME280;44794;42.652;23.318;2024-03-08T10:33:40;94793.59;;;11.53;52.27
59009;BME280;44794;42.652;23.318;2024-03-08T10:36:09;94784.25;;;11.62;53.00
59009;BME280;44794;42.652;23.318;2024-03-08T10:38:36;94780.47;;;11.55;53.23
59009;BME280;44794;42.652;23.318;2024-03-08T10:41:01;94782.50;;;11.62;53.00
59009;BME280;44794;42.652;23.318;2024-03-08T10:43:28;94782.00;;;11.57;51.73
59009;BME280;44794;42.652;23.318;2024-03-08T10:46:21;94773.44;;;11.10;53.10
59009;BME280;44794;42.652;23.318;2024-03-08T10:48:43;94772.81;;;11.07;53.61
59009;BME280;44794;42.652;23.318;2024-03-08T10:51:09;94776.13;;;11.32;53.01
59009;BME280;44794;42.652;23.318;2024-03-08T10:53:36;94774.34;;;11.32;52.47
59009;BME280;44794;42.652;23.318;2024-03-08T10:56:04;94787.06;;;12.04;51.23
59009;BME280;44794;42.652;23.318;2024-03-08T10:58:29;94779.50;;;12.45;49.75
59009;BME280;44794;42.652;23.318;2024-03-08T11:00:55;94767.44;;;12.86;51.20
59009;BME280;44794;42.652;23.318;2024-03-08T11:06:08;94790.16;;;13.89;45.10
59009;BME280;44794;42.652;23.318;2024-03-08T11:08:36;94771.13;;;13.57;45.89
59009;BME280;44794;42.652;23.318;2024-03-08T11:11:03;94769.72;;;13.33;46.73
59009;BME280;44794;42.652;23.318;2024-03-08T11:13:36;94774.09;;;13.32;44.85
59009;BME280;44794;42.652;23.318;2024-03-08T11:16:10;94772.84;;;13.88;46.37
59009;BME280;44794;42.652;23.318;2024-03-08T11:18:36;94776.59;;;13.54;45.88
59009;BME280;44794;42.652;23.318;2024-03-08T11:21:06;94753.84;;;12.82;47.01
59009;BME280;44794;42.652;23.318;2024-03-08T11:23:37;94771.44;;;12.48;47.69
59009;BME280;44794;42.652;23.318;2024-03-08T11:26:02;94751.34;;;11.84;49.88
59009;BME280;44794;42.652;23.318;2024-03-08T11:28:32;94750.69;;;11.59;50.51
59009;BME280;44794;42.652;23.318;2024-03-08T11:33:31;94746.47;;;12.34;48.71
59009;BME280;44794;42.652;23.318;2024-03-08T11:36:03;94751.84;;;12.75;47.69
59009;BME280;44794;42.652;23.318;2024-03-08T11:38:40;94742.63;;;12.71;48.30
59009;BME280;44794;42.652;23.318;2024-03-08T11:41:05;94745.59;;;12.56;48.07
59009;BME280;44794;42.652;23.318;2024-03-08T11:43:30;94732.63;;;11.79;50.46
59009;BME280;44794;42.652;23.318;2024-03-08T11:46:07;94727.75;;;11.29;51.78
59009;BME280;44794;42.652;23.318;2024-03-08T11:48:33;94733.75;;;10.85;52.40
59009;BME280;44794;42.652;23.318;2024-03-08T11:51:01;94735.28;;;10.64;53.13
59009;BME280;44794;42.652;23.318;2024-03-08T11:53:26;94721.13;;;10.45;54.08
59009;BME280;44794;42.652;23.318;2024-03-08T11:55:52;94722.91;;;10.08;55.38
59009;BME280;44794;42.652;23.318;2024-03-08T11:58:17;94720.75;;;10.38;54.16
59009;BME280;44794;42.652;23.318;2024-03-08T12:00:43;94712.59;;;10.43;54.32
59009;BME280;44794;42.652;23.318;2024-03-08T12:03:11;94717.19;;;10.39;53.36
59009;BME280;44794;42.652;23.318;2024-03-08T12:05:37;94711.19;;;10.39;53.52
59009;BME280;44794;42.652;23.318;2024-03-08T12:08:03;94720.44;;;10.66;53.27
59009;BME280;44794;42.652;23.318;2024-03-08T12:10:30;94725.81;;;11.10;51.64
59009;BME280;44794;42.652;23.318;2024-03-08T12:12:57;94731.28;;;11.63;51.63
59009;BME280;44794;42.652;23.318;2024-03-08T12:15:24;94732.63;;;11.90;49.27
59009;BME280;44794;42.652;23.318;2024-03-08T12:17:51;94737.63;;;12.26;47.70
59009;BME280;44794;42.652;23.318;2024-03-08T12:20:21;94734.00;;;12.49;48.60
59009;BME280;44794;42.652;23.318;2024-03-08T12:22:56;94732.94;;;12.51;47.03
59009;BME280;44794;42.652;23.318;2024-03-08T12:25:21;94735.94;;;12.36;47.10
59009;BME280;44794;42.652;23.318;2024-03-08T12:27:47;94737.47;;;12.16;47.21
59009;BME280;44794;42.652;23.318;2024-03-08T12:30:25;94735.00;;;12.15;48.07
59009;BME280;44794;42.652;23.318;2024-03-08T12:32:53;94726.50;;;11.91;48.34
59009;BME280;44794;42.652;23.318;2024-03-08T12:35:21;94727.88;;;11.62;48.78
59009;BME280;44794;42.652;23.318;2024-03-08T12:37:48;94714.94;;;11.50;49.35
59009;BME280;44794;42.652;23.318;2024-03-08T12:40:14;94715.56;;;11.64;49.87
59009;BME280;44794;42.652;23.318;2024-03-08T12:42:42;94711.13;;;11.32;50.45
59009;BME280;44794;42.652;23.318;2024-03-08T12:45:07;94713.53;;;11.46;49.68
59009;BME280;44794;42.652;23.318;2024-03-08T12:47:35;94707.59;;;10.99;50.69
59009;BME280;44794;42.652;23.318;2024-03-08T12:50:00;94706.53;;;11.46;49.62
59009;BME280;44794;42.652;23.318;2024-03-08T12:52:26;94704.88;;;11.45;49.36
59009;BME280;44794;42.652;23.318;2024-03-08T12:54:51;94702.72;;;11.85;49.50
59009;BME280;44794;42.652;23.318;2024-03-08T12:57:16;94691.34;;;11.86;49.70